createdAt,value
2019-05-06T00:01:36.211Z,4.28
2019-05-06T00:04:06.054Z,4.60
2019-05-06T00:06:36.075Z,5.37
2019-05-06T00:09:06.793Z,4.58
2019-05-06T00:11:36.967Z,7.28
2019-05-06T00:14:07.005Z,7.30
2019-05-06T00:16:36.945Z,12.33
2019-05-06T00:19:06.881Z,10.08
2019-05-06T00:21:36.816Z,7.37
2019-05-06T00:24:06.739Z,6.58
2019-05-06T00:26:56.931Z,7.53
2019-05-06T00:29:26.662Z,6.10
2019-05-06T00:31:56.600Z,5.50
2019-05-06T00:34:26.524Z,5.95
2019-05-06T00:36:56.468Z,5.70
2019-05-06T00:39:28.034Z,5.92
2019-05-06T00:42:05.558Z,5.10
2019-05-06T00:44:35.584Z,4.83
2019-05-06T00:47:05.513Z,5.28
2019-05-06T00:49:35.549Z,5.15
2019-05-06T00:52:05.486Z,5.33
2019-05-06T00:54:36.636Z,5.90
2019-05-06T00:57:06.582Z,5.67
2019-05-06T00:59:36.553Z,5.92
2019-05-06T01:02:06.443Z,5.35
2019-05-06T01:04:37.547Z,5.35
2019-05-06T01:07:07.341Z,5.65
2019-05-06T01:09:37.278Z,5.35
2019-05-06T01:12:07.675Z,5.58
2019-05-06T01:14:47.986Z,5.05
2019-05-06T01:17:17.889Z,5.03
2019-05-06T01:19:47.855Z,5.25
2019-05-06T01:22:17.787Z,5.58
2019-05-06T01:24:47.726Z,5.37
2019-05-06T01:27:17.755Z,5.72
2019-05-06T01:29:47.596Z,6.08
2019-05-06T01:32:17.520Z,5.15
2019-05-06T01:34:49.011Z,5.47
2019-05-06T01:37:20.573Z,5.85
2019-05-06T01:39:54.898Z,5.70
2019-05-06T01:42:26.471Z,5.78
2019-05-06T01:44:56.414Z,6.00
2019-05-06T01:47:26.340Z,5.97
2019-05-06T01:49:56.231Z,5.70
2019-05-06T01:52:26.209Z,5.85
2019-05-06T01:54:55.971Z,6.40
2019-05-06T01:57:25.979Z,6.20
2019-05-06T01:59:56.017Z,6.92
2019-05-06T02:02:25.945Z,5.67
2019-05-06T02:04:55.782Z,7.97
2019-05-06T02:07:26.075Z,6.12
2019-05-06T02:09:56.061Z,6.12
2019-05-06T02:12:26.008Z,5.55
2019-05-06T02:14:55.928Z,6.03
2019-05-06T02:17:25.862Z,5.78
2019-05-06T02:19:55.801Z,6.47
2019-05-06T02:22:36.371Z,6.33
2019-05-06T02:25:09.784Z,6.40
2019-05-06T02:27:39.824Z,6.08
2019-05-06T02:30:20.286Z,5.75
2019-05-06T02:33:08.248Z,5.90
2019-05-06T02:35:39.791Z,6.12
2019-05-06T02:38:11.286Z,6.28
2019-05-06T02:40:42.659Z,6.53
2019-05-06T02:43:13.595Z,5.85
2019-05-06T02:45:43.589Z,6.80
2019-05-06T02:48:15.195Z,6.72
2019-05-06T02:50:46.698Z,6.87
2019-05-06T02:53:19.274Z,6.25
2019-05-06T02:55:49.185Z,6.40
2019-05-06T02:58:19.135Z,7.12
2019-05-06T03:00:49.062Z,6.53
2019-05-06T03:03:19.205Z,6.95
2019-05-06T03:05:49.248Z,6.12
2019-05-06T03:08:19.069Z,7.35
2019-05-06T03:10:49.014Z,6.78
2019-05-06T03:13:18.943Z,6.33
2019-05-06T03:15:48.882Z,6.03
2019-05-06T03:18:23.291Z,5.80
2019-05-06T03:20:59.358Z,6.00
2019-05-06T03:23:34.465Z,6.10
2019-05-06T03:26:05.812Z,6.15
2019-05-06T03:28:34.305Z,6.42
2019-05-06T03:31:06.932Z,5.97
2019-05-06T03:33:55.166Z,6.03
2019-05-06T03:36:18.829Z,5.87
2019-05-06T03:38:39.041Z,6.40
2019-05-06T03:41:08.987Z,6.22
2019-05-06T03:43:43.074Z,5.55
2019-05-06T03:46:23.214Z,5.20
2019-05-06T03:49:03.609Z,6.17
2019-05-06T03:51:34.184Z,5.58
2019-05-06T03:54:04.957Z,5.37
2019-05-06T03:56:36.717Z,5.37
2019-05-06T03:59:08.346Z,6.25
2019-05-06T04:01:38.642Z,5.53
2019-05-06T04:04:08.566Z,5.08
2019-05-06T04:06:38.599Z,5.45
2019-05-06T04:09:08.506Z,5.67
2019-05-06T04:11:43.055Z,5.45
2019-05-06T04:14:14.057Z,5.58
2019-05-06T04:16:54.527Z,6.50
2019-05-06T04:19:33.490Z,5.35
2019-05-06T04:22:05.119Z,5.50
2019-05-06T04:24:53.976Z,6.03
2019-05-06T04:27:33.566Z,5.37
2019-05-06T04:30:04.662Z,6.03
2019-05-06T04:32:35.330Z,5.37
2019-05-06T04:35:05.684Z,5.83
2019-05-06T04:37:35.811Z,5.47
2019-05-06T04:40:07.499Z,6.20
2019-05-06T04:42:38.859Z,5.75
2019-05-06T04:45:09.193Z,6.17
2019-05-06T04:47:39.124Z,5.72
2019-05-06T04:50:09.583Z,5.70
2019-05-06T04:52:39.524Z,6.17
2019-05-06T04:55:09.729Z,5.80
2019-05-06T04:57:43.738Z,5.33
2019-05-06T05:00:13.256Z,5.10
2019-05-06T05:02:46.447Z,5.22
2019-05-06T05:05:15.019Z,5.58
2019-05-06T05:07:44.959Z,6.95
2019-05-06T05:10:16.625Z,5.75
2019-05-06T05:13:03.852Z,5.87
2019-05-06T05:15:41.838Z,5.53
2019-05-06T05:18:16.390Z,6.30
2019-05-06T05:20:46.915Z,7.15
2019-05-06T05:25:46.307Z,5.83
2019-05-06T05:28:16.234Z,6.15
2019-05-06T05:30:46.077Z,6.35
2019-05-06T05:33:16.214Z,5.58
2019-05-06T05:35:46.069Z,5.42
2019-05-06T05:38:17.099Z,5.83
2019-05-06T05:40:47.042Z,5.15
2019-05-06T05:43:32.614Z,5.92
2019-05-06T05:46:03.273Z,4.67
2019-05-06T05:53:33.514Z,4.92
2019-05-06T05:56:04.129Z,4.92
2019-05-06T05:58:34.917Z,5.47
2019-05-06T06:01:04.820Z,5.95
2019-05-06T06:03:34.748Z,5.53
2019-05-06T06:06:04.596Z,5.25
2019-05-06T06:08:36.912Z,4.87
2019-05-06T06:11:07.826Z,4.65
2019-05-06T06:13:37.717Z,5.03
2019-05-06T06:16:09.240Z,5.12
2019-05-06T06:18:55.838Z,4.83
2019-05-06T06:21:32.136Z,5.15
2019-05-06T06:24:03.689Z,4.62
2019-05-06T06:26:34.131Z,4.70
2019-05-06T06:29:04.067Z,4.00
2019-05-06T06:31:36.246Z,4.40
2019-05-06T06:34:07.731Z,4.62
2019-05-06T06:36:57.498Z,4.40
2019-05-06T06:39:29.898Z,4.00
2019-05-06T06:41:59.916Z,4.10
2019-05-06T06:44:33.107Z,3.85
2019-05-06T06:47:03.369Z,3.67
2019-05-06T06:49:33.417Z,3.92
2019-05-06T06:52:05.657Z,3.35
2019-05-06T06:54:35.018Z,3.55
2019-05-06T06:57:09.430Z,3.70
2019-05-06T06:59:42.558Z,3.12
2019-05-06T07:02:32.876Z,3.33
2019-05-06T07:05:21.595Z,3.35
2019-05-06T07:07:46.613Z,3.30
2019-05-06T07:10:32.407Z,3.58
2019-05-06T07:13:03.104Z,3.02
2019-05-06T07:15:33.759Z,3.05
2019-05-06T07:18:03.852Z,3.27
2019-05-06T07:20:35.432Z,2.90
2019-05-06T07:23:22.233Z,3.27
2019-05-06T07:25:53.785Z,3.40
2019-05-06T07:28:24.876Z,3.17
2019-05-06T07:30:55.416Z,2.72
2019-05-06T07:33:25.572Z,3.40
2019-05-06T07:35:55.482Z,3.27
2019-05-06T07:38:26.929Z,2.70
2019-05-06T07:41:05.111Z,2.60
2019-05-06T07:43:55.154Z,2.25
2019-05-06T07:46:42.729Z,2.17
2019-05-06T07:49:13.022Z,2.60
2019-05-06T07:51:42.968Z,2.00
2019-05-06T07:54:12.891Z,2.05
2019-05-06T07:56:42.985Z,2.00
2019-05-06T07:59:12.923Z,2.40
2019-05-06T08:01:44.200Z,2.58
2019-05-06T08:04:14.267Z,2.60
2019-05-06T08:06:44.306Z,2.10
2019-05-06T08:09:14.238Z,2.65
2019-05-06T08:11:44.186Z,2.72
2019-05-06T08:14:14.114Z,2.30
2019-05-06T08:16:45.679Z,2.37
2019-05-06T08:19:15.718Z,2.55
2019-05-06T08:21:47.288Z,2.00
2019-05-06T08:24:17.222Z,1.77
2019-05-06T08:26:48.172Z,2.10
2019-05-06T08:29:18.832Z,2.05
2019-05-06T08:31:48.760Z,2.30
2019-05-06T08:34:18.702Z,2.22
2019-05-06T08:36:50.281Z,1.80
2019-05-06T08:39:22.022Z,2.20
2019-05-06T08:41:52.900Z,2.35
2019-05-06T08:44:23.052Z,1.98
2019-05-06T08:46:54.107Z,1.60
2019-05-06T08:49:24.038Z,1.80
2019-05-06T08:51:55.614Z,2.08
2019-05-06T08:54:36.083Z,1.80
2019-05-06T08:57:06.018Z,1.75
2019-05-06T08:59:35.948Z,2.37
2019-05-06T09:02:06.914Z,1.82
2019-05-06T09:04:36.939Z,2.70
2019-05-06T09:07:06.974Z,2.70
2019-05-06T09:09:36.925Z,3.15
2019-05-06T09:12:06.743Z,2.45
2019-05-06T09:14:36.688Z,3.25
2019-05-06T09:17:07.539Z,2.33
2019-05-06T09:19:37.581Z,3.00
2019-05-06T09:22:07.401Z,2.47
2019-05-06T09:24:37.344Z,3.25
2019-05-06T09:27:14.844Z,2.33
2019-05-06T09:29:46.416Z,2.75
2019-05-06T09:32:17.828Z,2.17
2019-05-06T09:34:58.165Z,2.75
2019-05-06T09:39:57.305Z,2.47
2019-05-06T09:42:27.440Z,3.25
2019-05-06T09:44:57.386Z,2.10
2019-05-06T09:47:32.988Z,1.45
2019-05-06T09:50:03.291Z,1.82
2019-05-06T09:52:33.457Z,2.83
2019-05-06T09:57:35.760Z,2.55
2019-05-06T10:00:07.753Z,2.80
2019-05-06T10:02:39.204Z,2.40
2019-05-06T10:07:38.556Z,1.85
2019-05-06T10:10:08.894Z,2.35
2019-05-06T10:12:38.832Z,1.70
2019-05-06T10:15:09.031Z,2.45
2019-05-06T10:20:08.381Z,2.17
2019-05-06T10:25:07.782Z,2.12
2019-05-06T10:30:12.971Z,2.30
2019-05-06T10:32:46.286Z,2.47
2019-05-06T10:35:16.635Z,1.60
2019-05-06T10:40:25.711Z,1.62
2019-05-06T10:43:07.188Z,1.50
2019-05-06T10:45:37.136Z,1.60
2019-05-06T10:48:07.063Z,1.80
2019-05-06T10:50:41.819Z,1.80
2019-05-06T10:53:19.047Z,1.80
2019-05-06T10:55:56.818Z,2.37
2019-05-06T10:58:26.954Z,1.70
2019-05-06T11:01:12.581Z,1.80
2019-05-06T11:03:43.365Z,2.00
2019-05-06T11:06:14.977Z,1.70
2019-05-06T11:08:45.111Z,2.20
2019-05-06T11:11:24.834Z,1.77
2019-05-06T11:13:46.821Z,1.90
2019-05-06T11:16:17.113Z,1.80
2019-05-06T11:18:47.062Z,1.57
2019-05-06T11:21:16.926Z,1.77
2019-05-06T11:23:47.016Z,1.98
2019-05-06T11:26:17.094Z,1.80
2019-05-06T11:28:48.675Z,2.60
2019-05-06T11:31:29.267Z,1.70
2019-05-06T11:34:07.050Z,2.00
2019-05-06T11:36:42.588Z,1.40
2019-05-06T11:39:14.221Z,2.22
2019-05-06T11:41:59.193Z,1.65
2019-05-06T11:44:15.791Z,2.22
2019-05-06T11:46:47.462Z,1.67
2019-05-06T11:49:17.397Z,1.70
2019-05-06T11:51:47.337Z,1.40
2019-05-06T11:54:20.734Z,1.57
2019-05-06T11:56:52.619Z,1.90
2019-05-06T11:59:22.732Z,1.42
2019-05-06T12:02:03.748Z,1.90
2019-05-06T12:04:33.787Z,1.60
2019-05-06T12:07:11.040Z,1.32
2019-05-06T12:09:35.544Z,1.40
2019-05-06T12:12:05.422Z,1.82
2019-05-06T12:14:35.357Z,1.60
2019-05-06T12:17:06.370Z,1.30
2019-05-06T12:19:36.428Z,1.57
2019-05-06T12:22:06.391Z,1.70
2019-05-06T12:24:36.325Z,1.42
2019-05-06T12:27:06.290Z,1.70
2019-05-06T12:29:38.362Z,1.50
2019-05-06T12:32:15.227Z,1.20
2019-05-06T12:34:45.450Z,1.52
2019-05-06T12:39:47.797Z,1.80
2019-05-06T12:42:29.086Z,1.72
2019-05-06T12:47:34.071Z,1.80
2019-05-06T12:50:05.176Z,1.95
2019-05-06T12:52:35.070Z,1.75
2019-05-06T12:55:20.365Z,1.20
2019-05-06T12:57:38.929Z,1.20
2019-05-06T13:00:13.064Z,1.20
2019-05-06T13:02:43.857Z,1.60
2019-05-06T13:05:15.574Z,1.37
2019-05-06T13:07:47.154Z,1.32
2019-05-06T13:10:19.025Z,1.42
2019-05-06T13:12:50.612Z,1.50
2019-05-06T13:15:20.632Z,1.98
2019-05-06T13:17:50.571Z,1.37
2019-05-06T13:20:22.786Z,1.60
2019-05-06T13:22:53.848Z,1.40
2019-05-06T13:25:23.769Z,1.70
2019-05-06T13:27:53.708Z,1.50
2019-05-06T13:30:24.349Z,1.37
2019-05-06T13:33:04.704Z,1.40
2019-05-06T13:35:35.055Z,1.67
2019-05-06T13:38:05.087Z,1.52
2019-05-06T13:40:39.655Z,1.55
2019-05-06T13:43:14.053Z,1.75
2019-05-06T13:46:02.961Z,1.45
2019-05-06T13:48:50.238Z,1.43
2019-05-06T13:51:24.769Z,1.77
2019-05-06T13:53:55.733Z,1.42
2019-05-06T13:56:25.778Z,1.50
2019-05-06T13:58:55.698Z,1.72
2019-05-06T14:01:43.854Z,1.17
2019-05-06T14:04:16.953Z,1.20
2019-05-06T14:06:46.899Z,1.37
2019-05-06T14:09:28.690Z,1.10
2019-05-06T14:11:48.501Z,1.60
2019-05-06T14:14:18.532Z,1.50
2019-05-06T14:16:48.570Z,1.60
2019-05-06T14:19:18.697Z,1.40
2019-05-06T14:21:48.648Z,1.27
2019-05-06T14:24:18.781Z,1.75
2019-05-06T14:26:59.256Z,1.60
2019-05-06T14:29:42.124Z,1.02
2019-05-06T14:32:14.851Z,1.65
2019-05-06T14:34:43.909Z,1.30
2019-05-06T14:37:13.853Z,1.50
2019-05-06T14:39:55.543Z,1.60
2019-05-06T14:42:22.035Z,1.57
2019-05-06T14:44:51.502Z,1.60
2019-05-06T14:47:26.034Z,1.50
2019-05-06T14:49:55.974Z,1.30
2019-05-06T14:52:25.956Z,2.12
2019-05-06T14:54:57.468Z,1.37
2019-05-06T14:57:27.506Z,1.20
2019-05-06T14:59:57.454Z,1.50
2019-05-06T15:02:28.297Z,1.10
2019-05-06T15:04:58.449Z,1.40
2019-05-06T15:07:28.382Z,1.40
2019-05-06T15:10:16.557Z,1.12
2019-05-06T15:12:33.329Z,1.67
2019-05-06T15:15:03.805Z,1.10
2019-05-06T15:17:36.655Z,1.47
2019-05-06T15:20:06.758Z,1.52
2019-05-06T15:22:36.778Z,1.32
2019-05-06T15:25:07.737Z,1.60
2019-05-06T15:27:37.587Z,1.42
2019-05-06T15:30:12.288Z,1.50
2019-05-06T15:32:41.636Z,1.70
2019-05-06T15:35:22.810Z,1.35
2019-05-06T15:37:54.387Z,2.25
2019-05-06T15:40:32.382Z,2.20
2019-05-06T15:42:56.214Z,1.47
2019-05-06T15:45:28.705Z,1.45
2019-05-06T15:47:58.723Z,1.52
2019-05-06T15:50:28.768Z,1.90
2019-05-06T15:52:58.787Z,2.70
2019-05-06T15:55:32.139Z,2.02
2019-05-06T15:58:03.442Z,2.22
2019-05-06T16:00:33.322Z,2.02
2019-05-06T16:03:03.965Z,2.27
2019-05-06T16:10:50.383Z,2.05
2019-05-06T16:13:05.467Z,2.17
2019-05-06T16:15:35.586Z,2.10
2019-05-06T16:18:05.522Z,2.30
2019-05-06T16:20:35.549Z,2.35
2019-05-06T16:23:10.406Z,4.75
2019-05-06T16:25:42.307Z,2.17
2019-05-06T16:28:12.910Z,1.62
2019-05-06T16:30:43.048Z,1.77
2019-05-06T16:33:15.954Z,1.77
2019-05-06T16:35:44.673Z,1.87
2019-05-06T16:38:14.869Z,2.08
2019-05-06T16:40:45.425Z,1.50
2019-05-06T16:43:16.733Z,1.82
2019-05-06T16:45:46.659Z,1.30
2019-05-06T16:48:16.597Z,1.72
2019-05-06T16:50:47.615Z,1.57
2019-05-06T16:53:18.005Z,1.37
2019-05-06T16:56:02.238Z,1.95
2019-05-06T16:58:33.913Z,1.80
2019-05-06T17:01:04.039Z,1.47
2019-05-06T17:03:42.813Z,2.10
2019-05-06T17:06:22.908Z,1.85
2019-05-06T17:08:54.128Z,2.00
2019-05-06T17:11:30.279Z,1.90
2019-05-06T17:13:55.551Z,1.75
2019-05-06T17:16:25.578Z,2.00
2019-05-06T17:18:56.781Z,1.75
2019-05-06T17:21:27.425Z,1.80
2019-05-06T17:23:57.315Z,1.82
2019-05-06T17:26:27.361Z,1.75
2019-05-06T17:29:02.555Z,2.30
2019-05-06T17:31:39.001Z,2.17
2019-05-06T17:34:27.129Z,3.40
2019-05-06T17:36:58.709Z,2.08
2019-05-06T17:39:29.388Z,2.12
2019-05-06T17:41:59.636Z,4.90
2019-05-06T17:44:29.543Z,11.12
2019-05-06T17:47:07.683Z,2.90
2019-05-06T17:49:39.271Z,2.72
2019-05-06T17:52:14.003Z,2.35
2019-05-06T17:54:43.982Z,1.60
2019-05-06T17:57:13.918Z,1.70
2019-05-06T17:59:43.955Z,1.60
2019-05-06T18:02:15.479Z,1.67
2019-05-06T18:04:45.569Z,1.67
2019-05-06T18:07:15.507Z,2.00
2019-05-06T18:09:47.898Z,2.47
2019-05-06T18:12:18.867Z,2.30
2019-05-06T18:14:50.426Z,2.27
2019-05-06T18:17:22.025Z,2.62
2019-05-06T18:19:52.055Z,3.35
2019-05-06T18:22:22.742Z,2.10
2019-05-06T18:24:52.829Z,2.77
2019-05-06T18:27:22.810Z,2.85
2019-05-06T18:29:53.366Z,1.95
2019-05-06T18:32:23.532Z,2.33
2019-05-06T18:34:53.474Z,2.22
2019-05-06T18:37:24.031Z,1.90
2019-05-06T18:42:25.552Z,2.67
2019-05-06T18:44:55.496Z,107.17
2019-05-06T18:47:25.514Z,107.12
2019-05-06T18:49:55.466Z,44.15
2019-05-06T18:52:25.386Z,26.15
2019-05-06T18:54:55.339Z,37.42
2019-05-06T18:57:25.330Z,41.53
2019-05-06T18:59:56.203Z,81.15
2019-05-06T19:02:27.011Z,67.35
2019-05-06T19:04:59.338Z,70.78
2019-05-06T19:07:29.280Z,8.05
2019-05-06T19:10:12.965Z,6.08
2019-05-06T19:12:42.908Z,6.25
2019-05-06T19:15:13.204Z,7.03
2019-05-06T19:17:44.350Z,9.28
2019-05-06T19:20:15.617Z,6.17
2019-05-06T19:22:45.661Z,98.62
2019-05-06T19:25:15.932Z,30.70
2019-05-06T19:27:45.935Z,5.60
2019-05-06T19:30:16.285Z,7.47
2019-05-06T19:32:46.473Z,7.78
2019-05-06T19:35:16.673Z,7.90
2019-05-06T19:37:46.715Z,7.33
2019-05-06T19:40:16.623Z,6.75
2019-05-06T19:42:50.022Z,5.80
2019-05-06T19:45:18.185Z,4.22
2019-05-06T19:47:48.016Z,4.15
2019-05-06T19:50:20.995Z,4.42
2019-05-06T19:52:49.838Z,4.12
2019-05-06T19:55:22.967Z,4.25
2019-05-06T19:57:52.679Z,3.08
2019-05-06T20:00:23.263Z,4.25
2019-05-06T20:02:53.301Z,3.77
2019-05-06T20:05:24.867Z,4.33
2019-05-06T20:07:59.415Z,3.83
2019-05-06T20:10:47.549Z,3.92
2019-05-06T20:13:20.672Z,3.65
2019-05-06T20:15:49.155Z,2.40
2019-05-06T20:18:19.201Z,2.30
2019-05-06T20:20:49.099Z,2.20
2019-05-06T20:23:19.060Z,4.22
2019-05-06T20:25:49.109Z,2.45
2019-05-06T20:28:20.028Z,2.52
2019-05-06T20:30:52.899Z,2.40
2019-05-06T20:33:22.996Z,2.50
2019-05-06T20:35:53.922Z,2.60
2019-05-06T20:38:23.786Z,2.40
2019-05-06T20:40:53.720Z,2.17
2019-05-06T20:43:24.138Z,2.40
2019-05-06T20:45:54.104Z,2.55
2019-05-06T20:48:24.015Z,3.00
2019-05-06T20:50:53.867Z,3.80
2019-05-06T20:53:23.695Z,3.45
2019-05-06T20:55:53.634Z,3.62
2019-05-06T20:58:23.563Z,4.15
2019-05-06T21:00:53.505Z,3.87
2019-05-06T21:03:23.539Z,3.90
2019-05-06T21:05:53.477Z,4.17
2019-05-06T21:08:23.407Z,3.75
2019-05-06T21:10:53.451Z,4.22
2019-05-06T21:13:31.892Z,3.80
2019-05-06T21:15:55.016Z,2.90
2019-05-06T21:18:24.986Z,3.25
2019-05-06T21:20:54.931Z,3.00
2019-05-06T21:23:25.264Z,2.87
2019-05-06T21:25:55.220Z,3.08
2019-05-06T21:28:25.138Z,3.02
2019-05-06T21:30:54.983Z,3.10
2019-05-06T21:33:25.010Z,3.12
2019-05-06T21:35:54.942Z,3.30
2019-05-06T21:38:24.883Z,3.40
2019-05-06T21:40:54.820Z,3.15
2019-05-06T21:43:24.747Z,3.27
2019-05-06T21:45:54.684Z,3.62
2019-05-06T21:48:24.619Z,3.52
2019-05-06T21:50:54.560Z,5.62
2019-05-06T21:53:24.692Z,6.60
2019-05-06T21:55:54.595Z,7.12
2019-05-06T21:58:24.566Z,7.62
2019-05-06T22:00:56.541Z,6.28
2019-05-06T22:03:26.586Z,6.87
2019-05-06T22:05:56.520Z,5.92
2019-05-06T22:08:26.454Z,6.70
2019-05-06T22:10:56.387Z,6.67
2019-05-06T22:13:26.422Z,5.42
2019-05-06T22:15:56.456Z,4.97
2019-05-06T22:18:26.605Z,4.92
2019-05-06T22:21:06.965Z,5.25
2019-05-06T22:23:42.079Z,4.95
2019-05-06T22:26:16.007Z,4.45
2019-05-06T22:28:43.823Z,4.62
2019-05-06T22:31:13.740Z,4.87
2019-05-06T22:33:43.806Z,4.60
2019-05-06T22:36:13.738Z,4.47
2019-05-06T22:38:44.301Z,3.92
2019-05-06T22:41:14.621Z,4.55
2019-05-06T22:43:44.562Z,4.58
2019-05-06T22:46:14.600Z,3.72
2019-05-06T22:48:44.530Z,3.42
2019-05-06T22:51:15.483Z,3.70
2019-05-06T22:53:46.861Z,3.85
2019-05-06T22:56:16.792Z,3.92
2019-05-06T22:58:46.833Z,4.10
2019-05-06T23:01:18.317Z,4.12
2019-05-06T23:03:49.873Z,4.60
2019-05-06T23:06:21.892Z,5.65
2019-05-06T23:08:52.679Z,4.40
2019-05-06T23:11:22.648Z,4.62
2019-05-06T23:13:53.011Z,4.83
2019-05-06T23:18:52.491Z,4.67
2019-05-06T23:21:23.214Z,4.00
2019-05-06T23:23:54.743Z,4.40
2019-05-06T23:28:54.430Z,4.55
2019-05-06T23:31:24.657Z,4.65
2019-05-06T23:33:54.819Z,4.87
2019-05-06T23:36:24.839Z,5.03
2019-05-06T23:39:34.461Z,5.50
2019-05-06T23:42:53.352Z,5.42
2019-05-06T23:45:59.844Z,4.10
2019-05-06T23:49:05.877Z,4.20
2019-05-06T23:52:12.079Z,5.58
2019-05-06T23:55:18.565Z,4.33
2019-05-06T23:57:47.267Z,3.90
